Time;durP1;ratioP1;P1;durP2;ratioP2;P2;SDS_P1;SDS_P2;PMS_P1;PMS_P2;Temp;Humidity;BMP_temperature;BMP_pressure;BME280_temperature;BME280_humidity;BME280_pressure;Samples;Min_cycle;Max_cycle;Signal;HPM_P1;HPM_P2
2021/09/21 00:01:39;;;;;;;6.53;4.65;;;;;;;12.06;68.76;101590.13;4919753;28;126957;-64
2021/09/21 00:04:05;;;;;;;5.53;4.25;;;;;;;12.02;68.69;101589.84;4882738;28;1141165;-64
2021/09/21 00:06:31;;;;;;;6.57;4.88;;;;;;;12.01;68.95;101599.00;4921402;28;120547;-64
2021/09/21 00:08:57;;;;;;;6.43;5.10;;;;;;;11.98;68.52;101596.78;4921534;28;117682;-63
2021/09/21 00:11:23;;;;;;;7.63;5.13;;;;;;;11.96;68.77;101600.81;4920929;28;126075;-62
2021/09/21 00:13:49;;;;;;;7.55;5.10;;;;;;;11.93;68.47;101594.03;4920989;28;127880;-64
2021/09/21 00:16:15;;;;;;;4.97;4.43;;;;;;;11.94;69.09;101602.94;4922477;28;103456;-64
2021/09/21 00:18:41;;;;;;;6.30;4.90;;;;;;;11.92;68.71;101603.19;4920835;28;97932;-64
2021/09/21 00:21:08;;;;;;;7.10;4.88;;;;;;;11.93;68.96;101604.03;4922501;28;98339;-62
2021/09/21 00:23:34;;;;;;;6.90;5.40;;;;;;;11.94;69.05;101600.25;4921879;28;114156;-62
2021/09/21 00:26:00;;;;;;;6.80;5.00;;;;;;;11.94;68.72;101594.84;4920861;28;126274;-62
2021/09/21 00:28:26;;;;;;;5.70;4.82;;;;;;;11.94;68.60;101594.84;4921818;28;117739;-62
2021/09/21 00:30:53;;;;;;;7.10;4.72;;;;;;;11.91;68.59;101593.47;4922456;28;98129;-62
2021/09/21 00:33:22;;;;;;;6.53;5.07;;;;;;;11.90;68.69;101591.81;4920531;28;99100;-62
2021/09/21 00:35:52;;;;;;;5.45;4.72;;;;;;;11.89;68.44;101600.19;4920394;28;98629;-64
2021/09/21 00:38:20;;;;;;;6.20;4.88;;;;;;;11.89;68.52;101597.47;4922118;28;98247;-62
2021/09/21 00:40:46;;;;;;;6.45;4.90;;;;;;;11.86;68.80;101590.69;4922542;28;103095;-61
2021/09/21 00:43:12;;;;;;;7.47;5.10;;;;;;;11.85;69.27;101605.25;4921860;28;98336;-64
2021/09/21 00:45:39;;;;;;;6.90;5.18;;;;;;;11.85;68.94;101605.25;4921665;28;114680;-62
2021/09/21 00:48:05;;;;;;;7.55;5.22;;;;;;;11.85;68.80;101594.44;4922894;28;97790;-62
2021/09/21 00:50:32;;;;;;;6.40;5.22;;;;;;;11.86;69.07;101597.97;4920387;28;98338;-62
2021/09/21 00:53:00;;;;;;;7.80;5.32;;;;;;;11.85;69.21;101596.34;4921179;28;98332;-64
2021/09/21 00:55:26;;;;;;;6.90;5.30;;;;;;;11.87;69.10;101596.88;4922095;28;98151;-64
2021/09/21 00:57:52;;;;;;;6.63;5.05;;;;;;;11.86;69.10;101595.25;4905110;28;97829;-62
2021/09/21 01:00:19;;;;;;;5.07;4.47;;;;;;;11.84;69.18;101598.22;4920750;28;127730;-64
2021/09/21 01:02:46;;;;;;;7.35;5.03;;;;;;;11.85;69.36;101604.44;4921645;28;98401;-62
2021/09/21 01:05:12;;;;;;;5.93;4.95;;;;;;;11.84;69.00;101598.22;4921991;28;102069;-62
2021/09/21 01:07:42;;;;;;;6.75;4.93;;;;;;;11.82;69.18;101602.19;4921546;28;97990;-62
2021/09/21 01:10:11;;;;;;;7.35;4.65;;;;;;;11.82;68.93;101602.19;4922418;28;98890;-64
2021/09/21 01:12:37;;;;;;;5.60;4.55;;;;;;;11.82;68.86;101599.50;4921199;28;98537;-64
2021/09/21 01:15:05;;;;;;;6.75;4.97;;;;;;;11.83;69.39;101603.81;4918547;28;128589;-62
2021/09/21 01:17:31;;;;;;;7.18;5.20;;;;;;;11.82;69.29;101604.91;4922161;28;97892;-62
2021/09/21 01:19:57;;;;;;;6.07;5.15;;;;;;;11.81;68.92;101601.38;4921039;28;128017;-62
2021/09/21 01:22:23;;;;;;;6.35;5.13;;;;;;;11.82;68.76;101602.19;4920560;28;119203;-63
2021/09/21 01:24:49;;;;;;;6.80;4.95;;;;;;;11.82;69.37;101599.50;4920770;28;125798;-64
2021/09/21 01:27:15;;;;;;;6.65;4.85;;;;;;;11.81;69.23;101612.19;4921337;28;98125;-62
2021/09/21 01:29:41;;;;;;;7.75;5.10;;;;;;;11.80;69.33;101608.69;4920639;28;126801;-62
2021/09/21 01:32:07;;;;;;;6.82;5.05;;;;;;;11.79;69.30;101598.13;4903344;28;97934;-62
2021/09/21 01:34:34;;;;;;;6.13;4.70;;;;;;;11.79;69.26;101587.31;4918375;28;127909;-61
2021/09/21 01:37:01;;;;;;;5.95;4.60;;;;;;;11.79;69.40;101598.13;4904087;28;97926;-64
2021/09/21 01:39:27;;;;;;;6.72;5.35;;;;;;;11.78;69.69;101608.09;4921918;28;98350;-62
2021/09/21 01:41:54;;;;;;;6.43;5.15;;;;;;;11.77;70.17;101603.75;4920778;28;99193;-62
2021/09/21 01:44:20;;;;;;;7.40;4.95;;;;;;;11.77;69.42;101605.66;4920911;28;97819;-62
2021/09/21 01:46:46;;;;;;;7.63;5.28;;;;;;;11.77;69.65;101602.94;4920576;28;106234;-62
2021/09/21 01:49:15;;;;;;;6.55;5.22;;;;;;;11.75;69.34;101602.38;4921517;28;98339;-64
2021/09/21 01:51:48;;;;;;;6.30;5.20;;;;;;;11.73;69.17;101599.09;4921356;28;98426;-61
2021/09/21 01:54:25;;;;;;;6.25;5.07;;;;;;;11.72;69.17;101600.19;4921052;28;97817;-64
2021/09/21 01:59:35;;;;;;;9.48;4.97;;;;;;;11.72;69.62;101597.47;4916991;28;98145;-61
2021/09/21 02:02:02;;;;;;;6.35;5.10;;;;;;;11.70;69.45;101597.72;4918612;28;100487;-64
2021/09/21 02:04:28;;;;;;;8.23;5.57;;;;;;;11.71;69.90;101599.38;4921004;28;97904;-64
2021/09/21 02:06:54;;;;;;;6.63;4.88;;;;;;;11.71;69.52;101606.63;4917958;28;118506;-62
2021/09/21 02:09:20;;;;;;;6.30;5.25;;;;;;;11.68;69.29;101597.16;4903217;28;98103;-62
2021/09/21 02:11:47;;;;;;;6.47;4.93;;;;;;;11.68;69.58;101601.75;4919904;28;126965;-62
2021/09/21 02:14:14;;;;;;;5.82;4.90;;;;;;;11.67;69.71;101600.94;4921247;28;97894;-63
2021/09/21 02:16:41;;;;;;;5.93;5.32;;;;;;;11.67;69.90;101600.94;4920938;28;97777;-62
2021/09/21 02:19:07;;;;;;;6.95;5.07;;;;;;;11.67;69.66;101600.94;4919374;28;98896;-61
2021/09/21 02:21:33;;;;;;;6.30;4.90;;;;;;;11.66;69.85;101593.06;4917373;28;129384;-63
2021/09/21 02:24:00;;;;;;;6.40;5.10;;;;;;;11.66;69.86;101601.16;4920131;28;116379;-61
2021/09/21 02:26:26;;;;;;;8.82;5.63;;;;;;;11.65;70.31;101603.03;4918487;28;115822;-63
2021/09/21 02:28:52;;;;;;;7.03;4.80;;;;;;;11.65;69.96;101613.84;4919822;28;98134;-64
2021/09/21 02:31:19;;;;;;;5.43;4.82;;;;;;;11.65;70.15;101607.63;4917955;28;99103;-64
2021/09/21 02:33:46;;;;;;;8.05;4.95;;;;;;;11.65;70.23;101610.34;4918956;28;97911;-61
2021/09/21 02:36:12;;;;;;;8.18;5.20;;;;;;;11.64;70.02;101604.13;4921031;28;109743;-62
2021/09/21 02:38:38;;;;;;;7.63;4.97;;;;;;;11.64;69.71;101611.41;4902314;28;112816;-62
2021/09/21 02:41:04;;;;;;;7.43;5.38;;;;;;;11.62;70.09;101603.53;4919833;28;109931;-63
2021/09/21 02:43:30;;;;;;;6.57;5.20;;;;;;;11.60;70.01;101608.38;4919966;28;116922;-62
2021/09/21 02:46:01;;;;;;;5.80;5.00;;;;;;;11.59;69.77;101598.63;4920505;28;100975;-64
2021/09/21 02:48:29;;;;;;;6.95;4.97;;;;;;;11.58;70.18;101612.38;4902534;28;98087;-64
2021/09/21 02:50:58;;;;;;;7.32;4.88;;;;;;;11.56;69.97;101612.63;4920017;28;108963;-64
2021/09/21 02:53:24;;;;;;;6.18;5.32;;;;;;;11.55;69.96;101613.69;4919569;28;120251;-63
2021/09/21 02:55:50;;;;;;;5.70;4.60;;;;;;;11.54;69.91;101620.97;4920689;28;98218;-63
2021/09/21 02:58:16;;;;;;;7.25;5.20;;;;;;;11.54;70.09;101614.75;4922878;28;129083;-62
2021/09/21 03:00:43;;;;;;;5.80;4.72;;;;;;;11.52;69.62;101620.41;4923122;28;128157;-64
2021/09/21 03:03:09;;;;;;;6.57;5.32;;;;;;;11.51;70.00;101626.88;4921316;28;97925;-64
2021/09/21 03:05:41;;;;;;;6.45;5.10;;;;;;;11.50;70.24;101625.22;4923502;28;97659;-64
2021/09/21 03:08:28;;;;;;;6.47;4.80;;;;;;;11.50;70.15;101630.63;4905299;28;98559;-64
2021/09/21 03:11:09;;;;;;;7.53;5.22;;;;;;;11.48;70.13;101624.66;4922292;28;99020;-64
2021/09/21 03:18:49;;;;;;;5.88;5.28;;;;;;;11.66;70.21;101638.97;4901708;28;98070;-62
2021/09/21 03:21:15;;;;;;;6.35;5.20;;;;;;;11.71;69.99;101631.78;4917565;28;113803;-64
2021/09/21 03:23:41;;;;;;;6.13;4.80;;;;;;;11.77;69.89;101643.47;4921510;28;128548;-64
2021/09/21 03:26:07;;;;;;;6.45;5.00;;;;;;;11.80;70.34;101648.38;4889913;28;97918;-63
2021/09/21 03:28:33;;;;;;;7.60;5.90;;;;;;;11.84;69.91;101638.75;4922791;28;99178;-63
2021/09/21 03:31:00;;;;;;;5.88;4.80;;;;;;;11.87;69.86;101643.66;4920322;28;124772;-63
2021/09/21 03:33:26;;;;;;;5.38;4.85;;;;;;;11.89;69.79;101649.63;4923020;28;97938;-63
2021/09/21 03:35:52;;;;;;;7.32;5.43;;;;;;;11.92;70.03;101656.44;4922458;28;118206;-64
2021/09/21 03:38:18;;;;;;;5.90;4.68;;;;;;;11.90;69.69;101645.03;4922299;28;115938;-62
2021/09/21 03:40:44;;;;;;;6.65;5.10;;;;;;;11.93;69.68;101653.47;4922832;28;98600;-64
2021/09/21 03:43:10;;;;;;;7.35;5.28;;;;;;;11.92;69.30;101643.72;4922665;28;98252;-62
2021/09/21 03:45:36;;;;;;;6.70;5.13;;;;;;;11.94;69.32;101648.88;4922714;28;117499;-62
2021/09/21 03:48:03;;;;;;;5.70;5.03;;;;;;;11.94;69.36;101648.88;4922811;28;99929;-61
2021/09/21 03:50:29;;;;;;;6.15;4.53;;;;;;;11.93;69.07;101648.06;4922812;28;98225;-62
2021/09/21 03:52:55;;;;;;;6.15;5.10;;;;;;;11.93;69.42;101649.94;4922716;28;97980;-63
2021/09/21 03:55:21;;;;;;;6.90;4.93;;;;;;;11.92;69.59;101649.13;4922546;28;109721;-62
2021/09/21 03:57:47;;;;;;;8.25;5.50;;;;;;;11.92;69.04;101651.03;4922199;28;98160;-62
2021/09/21 04:00:14;;;;;;;7.88;6.03;;;;;;;11.91;69.13;101650.22;4922463;28;98320;-62
2021/09/21 04:02:40;;;;;;;9.43;6.18;;;;;;;11.91;69.24;101654.81;4920893;28;109968;-64
2021/09/21 04:05:06;;;;;;;7.68;6.88;;;;;;;11.89;69.31;101660.44;4923229;28;97836;-64
2021/09/21 04:07:33;;;;;;;8.73;6.80;;;;;;;11.89;69.46;101660.44;4921148;28;98587;-64
2021/09/21 04:09:59;;;;;;;8.35;6.03;;;;;;;11.89;69.01;101668.53;4923010;28;97736;-64
2021/09/21 04:12:25;;;;;;;7.43;6.22;;;;;;;11.89;69.32;101663.13;4921094;28;128117;-64
2021/09/21 04:14:51;;;;;;;6.50;5.80;;;;;;;11.89;69.38;101665.03;4922623;28;111031;-64
2021/09/21 04:17:18;;;;;;;8.13;5.90;;;;;;;11.89;68.85;101671.25;4920422;28;128941;-62
2021/09/21 04:19:44;;;;;;;7.40;5.68;;;;;;;11.89;69.06;101671.25;4922063;28;99587;-64
2021/09/21 04:22:10;;;;;;;9.13;6.22;;;;;;;11.88;69.48;101669.63;4919261;28;125867;-62
2021/09/21 04:24:37;;;;;;;9.88;6.40;;;;;;;11.87;69.20;101667.97;4922211;28;117680;-64
2021/09/21 04:27:03;;;;;;;7.85;6.50;;;;;;;11.85;68.96;101659.28;4921879;28;98642;-64
2021/09/21 04:29:30;;;;;;;7.85;6.03;;;;;;;11.85;69.42;101662.00;4920302;28;101982;-64
2021/09/21 04:31:59;;;;;;;6.63;5.95;;;;;;;11.84;69.25;101664.94;4922066;28;98421;-64
2021/09/21 04:34:26;;;;;;;6.55;5.60;;;;;;;11.82;69.00;101667.84;4921699;28;97984;-62
2021/09/21 04:36:52;;;;;;;8.88;5.85;;;;;;;11.83;69.66;101674.06;4919507;28;98025;-62
2021/09/21 04:39:18;;;;;;;8.98;5.97;;;;;;;11.83;69.26;101674.06;4888305;28;101267;-62
2021/09/21 04:41:44;;;;;;;6.35;5.40;;;;;;;11.83;69.13;101676.78;4920090;28;110289;-64
2021/09/21 04:44:10;;;;;;;6.40;5.10;;;;;;;11.81;69.24;101671.63;4904109;28;117027;-64
2021/09/21 04:46:36;;;;;;;6.20;4.97;;;;;;;11.78;69.33;101670.22;4902118;28;127522;-64
2021/09/21 04:49:08;;;;;;;7.35;5.53;;;;;;;11.78;69.23;101667.53;4922169;28;99079;-64
2021/09/21 04:51:34;;;;;;;5.60;4.80;;;;;;;11.78;69.12;101677.50;4904971;28;98121;-64
2021/09/21 04:54:00;;;;;;;7.18;5.78;;;;;;;11.77;69.21;101686.69;4922420;28;97698;-62
2021/09/21 04:56:26;;;;;;;7.03;4.97;;;;;;;11.78;69.32;101682.91;4921793;28;98812;-62
2021/09/21 04:58:53;;;;;;;7.43;5.20;;;;;;;11.77;69.35;101684.81;4922227;28;98411;-64
2021/09/21 05:01:19;;;;;;;6.45;5.18;;;;;;;11.78;68.97;101683.72;4920468;28;127848;-62
2021/09/21 05:03:45;;;;;;;7.45;5.03;;;;;;;11.79;69.03;101692.69;4921294;28;106072;-62
2021/09/21 05:06:11;;;;;;;5.43;4.60;;;;;;;11.78;69.46;101694.53;4920674;28;126955;-62
2021/09/21 05:08:37;;;;;;;6.50;4.82;;;;;;;11.78;68.92;101693.72;4920846;28;113756;-62
2021/09/21 05:11:03;;;;;;;6.47;5.28;;;;;;;11.78;69.09;101686.44;4920820;28;127455;-62
2021/09/21 05:13:29;;;;;;;7.47;5.78;;;;;;;11.77;68.63;101684.81;4902866;28;113471;-62
2021/09/21 05:15:55;;;;;;;8.52;5.68;;;;;;;11.75;68.85;101680.69;4887276;28;128350;-62
2021/09/21 05:18:21;;;;;;;5.88;5.28;;;;;;;11.75;69.24;101678.00;4902945;28;117288;-64
2021/09/21 05:20:48;;;;;;;8.18;5.63;;;;;;;11.76;69.00;101685.88;4919633;28;99364;-62
2021/09/21 05:23:14;;;;;;;7.72;5.38;;;;;;;11.79;69.05;101689.97;4920464;28;98266;-62
2021/09/21 05:25:40;;;;;;;7.53;5.43;;;;;;;11.81;69.48;101693.25;4920760;28;127255;-62
2021/09/21 05:28:06;;;;;;;7.85;5.22;;;;;;;11.83;68.77;101695.69;4920080;28;126764;-64
2021/09/21 05:30:32;;;;;;;7.25;5.22;;;;;;;11.85;68.88;101696.31;4921711;28;99423;-64
2021/09/21 05:32:58;;;;;;;6.07;5.13;;;;;;;11.87;68.49;101699.56;4920164;28;103728;-62
2021/09/21 05:35:24;;;;;;;6.30;4.68;;;;;;;11.90;68.51;101704.47;4919667;28;127949;-64
2021/09/21 05:37:50;;;;;;;6.20;5.35;;;;;;;11.91;68.88;101706.94;4920201;28;127374;-64
2021/09/21 05:40:17;;;;;;;6.15;4.63;;;;;;;11.92;68.48;101711.28;4920267;28;126510;-65
2021/09/21 05:42:44;;;;;;;7.70;5.05;;;;;;;11.94;68.35;101717.25;4921546;28;97956;-64
2021/09/21 05:45:10;;;;;;;7.30;4.90;;;;;;;11.95;68.29;101713.50;4919878;28;98570;-62
2021/09/21 05:47:40;;;;;;;7.53;4.40;;;;;;;11.96;68.15;101714.31;4920478;28;111098;-64
2021/09/21 05:50:07;;;;;;;7.22;5.05;;;;;;;11.99;67.68;101728.16;4925099;28;97880;-62
2021/09/21 05:52:33;;;;;;;6.22;5.03;;;;;;;12.01;67.76;101731.41;4920716;28;97919;-62
2021/09/21 05:54:59;;;;;;;5.60;4.82;;;;;;;12.01;68.03;101733.31;4919341;28;127830;-62
2021/09/21 05:57:25;;;;;;;5.72;5.07;;;;;;;12.06;68.21;101729.84;4920919;28;98820;-62
2021/09/21 05:59:51;;;;;;;7.25;4.95;;;;;;;12.08;68.28;101730.44;4919596;28;124377;-64
2021/09/21 06:02:17;;;;;;;7.00;4.80;;;;;;;12.12;67.62;101728.88;4920275;28;115289;-62
2021/09/21 06:04:43;;;;;;;6.60;4.60;;;;;;;12.15;67.40;101729.22;4920074;28;128717;-64
2021/09/21 06:07:09;;;;;;;5.97;4.53;;;;;;;12.22;67.25;101726.31;4919563;28;128190;-62
2021/09/21 06:09:35;;;;;;;6.25;4.97;;;;;;;12.27;67.63;101737.22;4921214;28;97899;-64
2021/09/21 06:12:02;;;;;;;5.75;4.75;;;;;;;12.31;66.79;101734.84;4919748;28;97841;-64
2021/09/21 06:14:28;;;;;;;5.25;4.53;;;;;;;12.35;66.81;101736.00;4920662;28;105404;-62
2021/09/21 06:16:54;;;;;;;6.70;4.40;;;;;;;12.36;67.02;101746.53;4919784;28;113107;-62
2021/09/21 06:19:20;;;;;;;6.97;4.60;;;;;;;12.39;66.54;101748.75;4920588;28;127954;-64
2021/09/21 06:21:46;;;;;;;6.95;4.72;;;;;;;12.39;66.60;101751.47;4919496;28;117711;-64
2021/09/21 06:24:12;;;;;;;6.07;4.85;;;;;;;12.39;66.89;101758.75;4919824;28;127913;-62
2021/09/21 06:26:38;;;;;;;6.72;5.10;;;;;;;12.42;66.87;101760.97;4919994;28;98578;-62
2021/09/21 06:29:04;;;;;;;5.68;4.45;;;;;;;12.46;66.71;101760.22;4919676;28;127478;-64
2021/09/21 06:31:31;;;;;;;5.78;4.43;;;;;;;12.48;66.13;101760.78;4903258;28;117947;-64
2021/09/21 06:33:57;;;;;;;7.47;4.82;;;;;;;12.50;65.92;101766.78;4924561;28;98578;-64
2021/09/21 06:36:23;;;;;;;5.90;4.13;;;;;;;12.51;66.61;101768.41;4924130;28;98256;-65
2021/09/21 06:38:49;;;;;;;6.22;4.43;;;;;;;12.52;66.26;101766.50;4906524;28;98152;-64
2021/09/21 06:41:15;;;;;;;6.03;4.88;;;;;;;12.56;66.72;101764.13;4923518;28;117771;-62
2021/09/21 06:43:41;;;;;;;6.15;4.80;;;;;;;12.62;66.61;101768.56;4921052;28;128773;-62
2021/09/21 06:46:07;;;;;;;7.90;4.88;;;;;;;12.69;66.37;101774.56;4922622;28;128153;-64
2021/09/21 06:48:38;;;;;;;7.90;4.95;;;;;;;12.74;66.71;101769.25;4922870;28;116855;-62
2021/09/21 06:51:07;;;;;;;5.15;4.28;;;;;;;12.78;66.55;101773.09;4923557;28;97882;-64
2021/09/21 06:53:34;;;;;;;6.43;4.55;;;;;;;12.81;66.47;101774.47;4922560;28;98357;-64
2021/09/21 06:56:00;;;;;;;7.40;4.70;;;;;;;12.85;66.71;101778.31;4889583;28;98377;-62
2021/09/21 06:58:26;;;;;;;7.68;5.25;;;;;;;12.92;66.04;101771.63;4921948;28;98462;-62
2021/09/21 07:00:52;;;;;;;7.20;5.07;;;;;;;13.01;66.35;101777.47;4924131;28;97835;-65
2021/09/21 07:03:18;;;;;;;6.03;4.97;;;;;;;13.10;65.86;101784.06;4922478;28;127758;-64
2021/09/21 07:05:44;;;;;;;7.38;4.60;;;;;;;13.21;65.61;101779.59;4923296;28;98200;-62
2021/09/21 07:08:10;;;;;;;6.85;5.20;;;;;;;13.35;64.86;101785.44;4923463;28;97934;-64
2021/09/21 07:10:36;;;;;;;6.10;4.85;;;;;;;13.46;64.88;101779.06;4922850;28;116825;-62
2021/09/21 07:13:03;;;;;;;6.78;5.18;;;;;;;13.58;64.89;101781.63;4922858;28;128293;-62
2021/09/21 07:15:29;;;;;;;5.70;4.95;;;;;;;13.69;64.59;101786.91;4923435;28;97818;-62
2021/09/21 07:17:55;;;;;;;6.55;5.20;;;;;;;13.78;64.21;101789.13;4904521;28;124680;-64
2021/09/21 07:20:22;;;;;;;7.93;5.22;;;;;;;13.86;63.83;101786.78;4923154;28;97681;-64
2021/09/21 07:22:48;;;;;;;5.50;4.82;;;;;;;13.98;64.08;101792.03;4922875;28;97929;-62
2021/09/21 07:25:17;;;;;;;6.35;5.28;;;;;;;14.08;63.37;101784.00;4923302;28;98088;-64
2021/09/21 07:27:43;;;;;;;6.57;4.82;;;;;;;14.21;63.23;101786.25;4922754;28;97827;-64
2021/09/21 07:30:10;;;;;;;7.18;5.22;;;;;;;14.33;63.12;101783.34;4922481;28;118700;-62
2021/09/21 07:32:36;;;;;;;7.25;5.28;;;;;;;14.33;63.22;101788.78;4920587;28;112285;-63
2021/09/21 07:35:03;;;;;;;5.95;4.80;;;;;;;14.40;62.17;101794.00;4923570;28;98684;-64
2021/09/21 07:37:29;;;;;;;8.45;5.20;;;;;;;14.49;62.51;101790.53;4920062;28;98328;-64
2021/09/21 07:39:55;;;;;;;6.00;5.03;;;;;;;14.60;61.22;101796.03;4923722;28;98175;-64
2021/09/21 07:42:21;;;;;;;6.75;5.40;;;;;;;14.70;61.02;101801.56;4922931;28;98854;-62
2021/09/21 07:44:48;;;;;;;7.65;5.30;;;;;;;14.83;60.92;101808.41;4923138;28;98414;-64
2021/09/21 07:47:14;;;;;;;6.43;4.95;;;;;;;14.88;60.68;101816.56;4922034;28;116443;-63
2021/09/21 07:49:40;;;;;;;5.65;4.47;;;;;;;14.95;60.63;101812.53;4922687;28;97881;-64
2021/09/21 07:52:06;;;;;;;6.80;5.10;;;;;;;15.13;60.35;101813.97;4923154;28;98814;-64
2021/09/21 07:54:32;;;;;;;5.63;4.88;;;;;;;15.36;59.90;101812.69;4923008;28;127957;-65
2021/09/21 07:56:58;;;;;;;6.22;5.10;;;;;;;15.60;59.57;101812.19;4922365;28;127012;-62
2021/09/21 07:59:24;;;;;;;7.13;4.93;;;;;;;15.76;59.46;101816.63;4923279;28;97718;-65
2021/09/21 08:01:51;;;;;;;6.13;5.22;;;;;;;15.86;58.97;101824.78;4922324;28;112953;-63
2021/09/21 08:04:17;;;;;;;6.07;4.97;;;;;;;15.94;59.03;101834.31;4920656;28;98357;-65
2021/09/21 08:06:43;;;;;;;6.47;5.38;;;;;;;15.92;58.83;101833.78;4919812;28;118872;-64
2021/09/21 08:09:09;;;;;;;6.35;4.68;;;;;;;15.92;59.34;101831.06;4922361;28;107412;-63
2021/09/21 08:11:35;;;;;;;5.78;5.18;;;;;;;15.91;59.20;101840.28;4922228;28;98109;-62
2021/09/21 08:14:03;;;;;;;7.53;5.18;;;;;;;15.90;59.29;101853.06;4921930;28;128003;-64
2021/09/21 08:16:30;;;;;;;5.47;4.72;;;;;;;15.86;59.39;101856.59;4922126;28;98276;-65
2021/09/21 08:18:57;;;;;;;7.05;5.25;;;;;;;15.85;59.32;101852.25;4923538;28;97926;-62
2021/09/21 08:21:25;;;;;;;8.30;5.32;;;;;;;15.92;59.14;101856.34;4920802;28;127733;-65
2021/09/21 08:23:52;;;;;;;5.97;4.97;;;;;;;16.03;58.43;101856.34;4905539;28;98332;-64
2021/09/21 08:26:18;;;;;;;8.30;5.53;;;;;;;16.18;58.58;101850.94;4921125;28;98204;-62
2021/09/21 08:28:44;;;;;;;5.53;4.88;;;;;;;16.37;59.23;101856.66;4921959;28;118146;-62
2021/09/21 08:31:10;;;;;;;6.28;4.90;;;;;;;16.47;58.47;101858.56;4907088;28;128126;-62
2021/09/21 08:33:36;;;;;;;5.57;4.78;;;;;;;16.45;58.28;101862.34;4902186;28;128129;-62
2021/09/21 08:36:03;;;;;;;6.82;5.20;;;;;;;16.48;58.00;101857.47;4919348;28;127783;-64
2021/09/21 08:38:29;;;;;;;8.00;5.20;;;;;;;16.54;57.50;101862.59;4921722;28;105795;-62
2021/09/21 08:40:55;;;;;;;6.13;4.65;;;;;;;16.63;57.91;101854.72;4920836;28;128248;-65
2021/09/21 08:43:21;;;;;;;7.90;5.05;;;;;;;16.59;57.90;101851.75;4921489;28;127314;-63
2021/09/21 08:45:47;;;;;;;5.43;4.57;;;;;;;16.55;57.83;101858.81;4921047;28;127573;-64
2021/09/21 08:48:13;;;;;;;6.68;5.28;;;;;;;16.78;57.40;101859.34;4904496;28;98046;-62
2021/09/21 08:50:39;;;;;;;6.07;5.45;;;;;;;17.09;56.66;101854.63;4921533;28;101702;-62
2021/09/21 08:53:05;;;;;;;5.22;4.55;;;;;;;17.29;56.96;101851.84;4919846;28;98173;-62
2021/09/21 08:55:32;;;;;;;5.63;4.93;;;;;;;17.31;56.82;101851.56;4921916;28;127372;-64
2021/09/21 08:57:58;;;;;;;6.10;4.50;;;;;;;17.50;56.25;101857.22;4922792;28;97857;-62
2021/09/21 09:00:26;;;;;;;5.95;5.03;;;;;;;17.87;55.55;101843.91;4903681;28;98923;-65
2021/09/21 09:03:09;;;;;;;6.95;5.22;;;;;;;18.39;54.71;101850.63;4921320;28;98768;-62
2021/09/21 09:05:47;;;;;;;6.18;5.00;;;;;;;19.32;53.29;101853.19;4921493;28;98612;-64
2021/09/21 09:08:13;;;;;;;5.38;4.00;;;;;;;20.33;50.76;101864.59;4920750;28;98070;-66
2021/09/21 09:10:39;;;;;;;5.60;4.15;;;;;;;20.94;50.10;101862.69;4903976;28;98025;-64
2021/09/21 09:13:17;;;;;;;5.00;3.83;;;;;;;21.22;50.52;101869.00;4901755;28;98352;-63
2021/09/21 09:15:53;;;;;;;4.85;3.67;;;;;;;21.13;50.59;101868.06;4919390;28;98013;-63
2021/09/21 09:18:27;;;;;;;3.50;3.15;;;;;;;20.94;50.67;101864.63;4921521;28;97857;-65
2021/09/21 09:20:53;;;;;;;4.50;3.90;;;;;;;20.95;49.66;101853.38;4918763;28;98374;-65
2021/09/21 09:23:19;;;;;;;5.07;3.63;;;;;;;21.06;48.88;101853.97;4921741;28;98001;-65
2021/09/21 09:25:47;;;;;;;5.07;3.70;;;;;;;21.41;48.27;101855.19;4919180;28;122428;-65
2021/09/21 09:28:23;;;;;;;4.70;3.47;;;;;;;22.34;47.23;101849.19;4921620;28;97996;-64
2021/09/21 09:30:49;;;;;;;4.63;3.15;;;;;;;22.58;46.33;101850.78;4921772;28;98840;-63
2021/09/21 09:33:16;;;;;;;4.00;3.10;;;;;;;23.11;45.01;101849.88;4903155;28;119030;-64
2021/09/21 09:35:44;;;;;;;4.35;3.42;;;;;;;23.51;44.14;101847.91;4920764;28;98046;-64
2021/09/21 09:38:15;;;;;;;3.50;2.75;;;;;;;24.16;44.19;101849.69;4921885;28;97772;-63
2021/09/21 09:40:53;;;;;;;4.25;2.80;;;;;;;24.77;44.06;101854.28;4921202;28;99404;-64
2021/09/21 09:43:22;;;;;;;3.05;2.35;;;;;;;24.17;44.00;101850.50;4921283;28;98512;-62
2021/09/21 09:45:51;;;;;;;4.22;2.67;;;;;;;24.32;43.00;101844.47;4921646;28;98089;-64
2021/09/21 09:48:19;;;;;;;4.63;2.60;;;;;;;24.51;42.17;101840.56;4921366;28;97881;-64
2021/09/21 09:50:47;;;;;;;4.05;2.30;;;;;;;24.34;42.76;101825.69;4920866;28;98175;-63
2021/09/21 09:53:13;;;;;;;3.53;2.70;;;;;;;23.40;43.70;101825.38;4919720;28;122914;-64
2021/09/21 09:55:46;;;;;;;5.20;2.60;;;;;;;22.84;45.05;101817.94;4920006;28;99396;-63
2021/09/21 09:58:13;;;;;;;3.10;2.28;;;;;;;22.44;45.29;101820.66;4920814;28;98010;-64
2021/09/21 10:00:39;;;;;;;3.92;2.30;;;;;;;21.95;45.95;101816.94;4919398;28;98186;-64
2021/09/21 10:03:06;;;;;;;3.88;2.38;;;;;;;21.37;46.91;101821.28;4917461;28;127591;-62
2021/09/21 10:05:34;;;;;;;3.97;1.90;;;;;;;20.82;47.42;101821.28;4904674;28;97977;-64
2021/09/21 10:08:00;;;;;;;4.40;2.05;;;;;;;20.38;48.91;101828.09;4923749;28;97827;-62
2021/09/21 10:10:27;;;;;;;4.57;2.15;;;;;;;19.99;49.27;101815.59;4924677;28;98401;-64
2021/09/21 10:12:53;;;;;;;4.15;1.88;;;;;;;19.62;49.23;101816.47;4923516;28;97869;-62
2021/09/21 10:15:19;;;;;;;3.42;1.90;;;;;;;19.31;49.78;101813.31;4922120;28;98482;-62
2021/09/21 10:17:54;;;;;;;2.83;1.75;;;;;;;18.99;50.54;101820.25;4905948;28;98796;-66
2021/09/21 10:20:22;;;;;;;2.47;1.50;;;;;;;18.78;50.58;101822.38;4925347;28;97700;-62
2021/09/21 10:22:53;;;;;;;3.45;2.03;;;;;;;18.54;51.26;101813.34;4924474;28;99250;-62
2021/09/21 10:25:27;;;;;;;3.00;1.73;;;;;;;18.39;51.44;101806.09;4924038;28;98247;-62
2021/09/21 10:27:53;;;;;;;3.67;1.90;;;;;;;18.35;51.97;101815.97;4924752;28;98481;-64
2021/09/21 10:30:23;;;;;;;4.13;1.70;;;;;;;18.30;51.62;101805.09;4924266;28;106391;-62
2021/09/21 10:32:50;;;;;;;2.80;1.48;;;;;;;18.30;51.97;101799.66;4924071;28;98366;-62
2021/09/21 10:35:19;;;;;;;2.40;1.60;;;;;;;18.29;51.70;101811.69;4923481;28;113591;-62
2021/09/21 10:37:58;;;;;;;2.45;1.92;;;;;;;18.27;51.19;101811.13;4924531;28;97788;-62
2021/09/21 10:40:35;;;;;;;3.33;1.77;;;;;;;18.22;52.21;101812.00;4922444;28;99165;-62
2021/09/21 10:43:01;;;;;;;2.95;2.08;;;;;;;18.24;51.67;101818.00;4923884;28;98389;-64
2021/09/21 10:45:27;;;;;;;3.03;1.70;;;;;;;18.20;51.94;101821.59;4922141;28;98722;-64
2021/09/21 10:48:04;;;;;;;2.30;1.60;;;;;;;18.14;52.26;101807.97;4905806;28;117798;-62
2021/09/21 10:50:36;;;;;;;4.80;1.92;;;;;;;18.12;52.15;101818.38;4924056;28;98982;-62
2021/09/21 10:53:07;;;;;;;2.83;1.80;;;;;;;18.08;53.08;101814.59;4923104;28;98242;-62
2021/09/21 10:55:38;;;;;;;3.17;2.00;;;;;;;18.02;53.23;101814.91;4922714;28;99036;-62
2021/09/21 10:58:06;;;;;;;3.20;1.80;;;;;;;17.96;53.11;101824.22;4923947;28;98182;-61
2021/09/21 11:00:34;;;;;;;3.13;1.90;;;;;;;17.94;53.07;101820.97;4923117;28;98860;-62
2021/09/21 11:03:01;;;;;;;3.78;2.10;;;;;;;17.95;52.80;101817.94;4924147;28;98549;-62
2021/09/21 11:05:27;;;;;;;3.42;2.00;;;;;;;17.98;52.61;101825.56;4923846;28;98053;-64
2021/09/21 11:08:07;;;;;;;3.67;2.13;;;;;;;17.95;52.80;101809.75;4909919;28;97993;-61
2021/09/21 11:10:43;;;;;;;3.38;2.05;;;;;;;17.86;52.86;101820.47;4923766;28;98078;-64
2021/09/21 11:13:17;;;;;;;3.63;2.15;;;;;;;17.79;52.44;101827.34;4922663;28;98006;-62
2021/09/21 11:15:43;;;;;;;3.67;2.00;;;;;;;17.68;52.61;101818.38;4921658;28;98402;-61
2021/09/21 11:18:18;;;;;;;3.75;1.88;;;;;;;17.53;53.32;101816.56;4922527;28;99728;-61
2021/09/21 11:20:50;;;;;;;2.75;2.00;;;;;;;17.40;53.45;101823.44;4924069;28;98830;-61
2021/09/21 11:23:17;;;;;;;3.72;2.08;;;;;;;17.25;53.72;101826.25;4922510;28;98885;-64
2021/09/21 11:25:45;;;;;;;4.57;2.03;;;;;;;17.10;54.06;101829.84;4923314;28;97770;-61
2021/09/21 11:28:11;;;;;;;2.90;2.20;;;;;;;16.97;53.84;101835.06;4921352;28;104270;-64
2021/09/21 11:30:38;;;;;;;3.05;2.25;;;;;;;16.83;54.22;101832.94;4923093;28;99040;-62